Aviation Digital Data Service (ADDS)

Output produced by METARs form (0030 UTC 24 May 2022)
found at http://www.aviationweather.gov/metar/data/
 
TAF MMCS 231730Z 2318/2418 23012KT P6SM SKC 
     FM232100 24015KT P6SM SKC 
     FM240600 00000KT P6SM SKC
       
TAF MMBT 231603Z 2318/2418 22010KT P6SM SCT100 
     TEMPO 2320/2324 22015KT 
     FM240300 26004KT P6SM SKC 
     BECMG 2406/2407 BKN080 
     FM241500 16008KT P6SM SCT030 SCT300
       
TAF COR MMVA 231849Z 2318/2418 07010KT P6SM BKN018 BKN300 
     BECMG 2321/2322 12012KT 
     FM240300 08008KT 6SM HZ SCT015 SCT300 
     BECMG 2409/2410 3SM BR HZ SCT015 SCT040 
     FM241500 15006KT 5SM HZ SCT030 SCT300
       
TAF MMUN 232252Z 2400/2506 10012KT P6SM SCT015 BKN250 TX31/2420Z TN26/2412Z 
     TEMPO 2400/2404 3SM TSRA BKN010CB 
     FM240600 09010KT P6SM BKN100 
     FM241500 12015KT P6SM BKN020 
     PROB40 2418/2422 5SM RA SCT010CB 
     FM250000 09010KT P6SM BKN080
       
TAF COR MMCM 231847Z 2318/2418 12018KT P6SM VC RA BKN010 BKN080 
     TEMPO 2318/2322 4SM RA BKN010CB 
     FM240300 10010KT P6SM BKN020 BKN090 
     FM240600 12014KT 6SM HZ BKN020 BKN090 
     BECMG 2409/2410 5SM -RA BKN015 OVCV080 
     TEMPO 2411/2415 4SM RA
       
TAF AMD MMCE 232152Z 2322/2418 10012KT P6SM BKN020 
     FM240300 12020KT P6SM SCT015 
     BECMG 2406/2407 12015KT 
     TEMPO 2410/2414 4SM HZ BKN015 
     FM241500 12012KT 6SM HZ SCT015
       
TAF MMCN 231629Z 2318/2418 20010KT P6SM SKC 
     TEMPO 2319/2323 20014KT 
     FM240300 15005KT P6SM SKC 
     BECMG 2409/2410 3SM BR 
     TEMPO 2411/2415 1SM BR OVC002 
     FM241600 16006KT 6SM HZ SKC
       
TAF COR MMCV 231850Z 2318/2418 15010G20KT 6SM HZ SCT070 
     TEMPO 2318/2322 15015G25KT 
     FM232200 13015KT 6SM HZ SCT030 BKN080 
     BECMG 2322/2323 6SM VC RA BKN030CB 
     TEMPO 2400/2404 1SM TSRA OVC010CB 
     FM240400 30010KT 4SM HZ BKN010 BKN080 BKN200 
     FM240800 16010KT 4SM HZ SCT010 
     TEMPO 2410/2414 1SM BR BKN010 
     FM241500 16010G20KT 5SM HZ SCT025
       
TAF MMCZ 232252Z 2400/2506 09012KT P6SM BKN020 
     TEMPO 2400/2402 3SM TSRA BKN015CB 
     FM240600 09010KT P6SM SCT015 
     FM241500 12015KT P6SM BKN020 
     PROB40 2418/2422 4SM RA BKN010CB 
     FM250000 09010KT P6SM BKN080
       
TAF MMCB 231603Z 2318/2418 16008KT 4SM HZ SCT025 SCT100 
     BECMG 2320/2321 SCT025CB BKN100 
     TEMPO 2322/2402 16010G20KT 4SM TSRA BKN020CB OVC080 
     FM240300 34005KT 4SM HZ SCT025 BKN100 
     BECMG 2406/2407 SKC 
     FM241600 16005KT 4SM HZ SCT100
       
TAF AMD MMCL 231959Z 2320/2418 20010G20KT 6SM BLDU SKC 
     FM232200 24015KT P6SM SKC 
     FM240300 00000KT P6SM SKC 
     FM241000 00000KT 5SM HZ BKN015 
     TEMPO 2412/2415 2SM BR BKN005
       
TAF MMLO 231624Z 2318/2418 29008KT P6SM SCT030 SCT100 
     BECMG 2320/2321 23010KT 
     TEMPO 2323/2403 23010G20KT BKN030CB 
     FM240500 13004KT P6SM SCT100 
     FM241600 23006KT P6SM SKC
       
TAF MMAN 231730Z 2318/2418 07010KT 4SM DZ OVC005 
     FM232000 12010KT 5SM HZ BKN025 
     TEMPO 2323/2402 14020KT 2SM TSRA OVC010CB 
     FM240300 12010KT 5SM DZ OVC010 
     FM240900 00000KT 2SM BR OVC005 
     FM241600 34010KT P6SM SCT030
       
TAF MMGL 232302Z 2400/2506 29015G25KT P6SM SCT030 TX33/2421Z TN15/2412Z 
     TEMPO 2401/2404 5SM TSRA BKN025CB 
     FM240600 00000KT P6SM BKN200 
     FM241800 23010G20KT P6SM SCT030 
     FM250100 28010KT P6SM SKC
       
TAF MMDO 231629Z 2318/2418 23010KT P6SM SKC 
     TEMPO 2321/2401 24008G18KT 
     FM240300 20006KT P6SM SKC 
     FM241600 23010KT P6SM SKC
       
TAF MMTG 231658Z 2318/2418 32010KT P6SM SCT025 
     FM232100 30015KT P6SM BKN025 
     TEMPO 2322/2402 3SM TSRA BKN020CB 
     FM240300 00000KT P6SM BKN080 
     FM241200 00000KT 5SM HZ SCT020
       
TAF MMTJ 232255Z 2400/2506 28012KT P6SM BKN015 TX21/2422Z TN14/2409Z 
     FM240900 00000KT 3SM BR OVC010 
     FM241800 28010KT P6SM SKC 
     FM250300 00000KT 5SM HZ BKN015
       
TAF MMMM 232302Z 2400/2506 20010KT P6SM SCT030 BKN250 
     TEMPO 2400/2404 6SM TSRA SCT025CB BKN080 
     FM240600 00000KT P6SM BKN080 
     FM242000 23010KT P6SM BKN025 
     PROB40 2421/2501 5SM TSRA BKN020CB 
     FM250300 00000KT P6SM BKN080
       
TAF MMTM 231717Z 2318/2418 12015KT P6SM SCT020 BKN070 
     TEMPO 2318/2321 3SM TSRA BKN015CB 
     FM240000 12010KT 5SM HZ SCT015 BKN200 
     FM241200 00000KT 3SM BR BKN010 
     FM241500 12010KT 5SM HZ SCT015 BKN070
       
TAF MMVR 231717Z 2318/2418 36015KT P6SM SCT080 TX36/2321Z TN23/2412Z 
     FM240300 34010KT 5SM HZ SCT015 
     TEMPO 2412/2416 3SM BR BKN010
       
TAF MMHO 231631Z 2318/2418 18010KT P6SM SKC 
     FM232100 24015KT P6SM SKC 
     FM240300 00000KT P6SM SKC
       
TAF MMGM 231629Z 2318/2418 22010KT P6SM SKC 
     TEMPO 2319/2323 22014KT 
     FM240300 15005KT P6SM SKC 
     FM241600 17010KT P6SM SKC
       
TAF MMAA 232316Z 2400/2506 25012KT P6SM SCT015 TX31/2419Z TN26/2410Z 
     FM240600 00000KT P6SM BKN100 
     FM241200 00000KT P6SM SKC 
     FM242000 24012KT P6SM SKC 
     FM250300 28010KT P6SM SCT015
       
TAF MMZC 232302Z 2400/2506 20020KT P6SM SKC TX28/2420Z TN14/2412Z 
     FM240300 23010KT P6SM SKC 
     FM242000 24015KT P6SM BKN030 
     FM250100 24010KT P6SM SKC
       
TAF MMRX 231716Z 2318/2418 13015KT 6SM HZ BKN030 BKN260 
     TEMPO 2322/2402 6SM RA BKN030CB 
     FM240200 13012KT 5SM HZ BKN015 BKN260 
     TEMPO 2402/2406 5SM RA 
     TEMPO 2409/2413 2SM BR HZ BKN006 OVC010 
     FM241400 15010G20KT 4SM HZ BKN015 BKN025 
     FM241700 15015G25KT 6SM HZ BKN025
       
TAF MMLP 231631Z 2318/2418 23012KT P6SM SKC 
     FM240300 18010KT P6SM SKC 
     FM241200 00000KT 5SM HZ OVC010 
     FM241400 18010KT P6SM BKN015 
     FM241500 20010KT P6SM SKC
       
TAF MMMY 232245Z 2400/2506 12010KT 5SM VC TSRA BKN010CB OVC025 TX30/2421Z
TN20/2412Z 
     TEMPO 2400/2404 2SM TSRA 
     FM240400 00000KT 5SM RA BKN015 OVC070 
     FM241200 34010KT P6SM BKN020 
     FM241800 34015KT P6SM SKC
       
TAF MMCU 231730Z 2318/2418 23015KT P6SM SCT030 
     TEMPO 2321/2401 5SM TSRA BKN030CB 
     FM240300 24010KT P6SM SCT200 
     FM241200 00000KT P6SM SKC
       
TAF MMMZ 232255Z 2400/2506 30010KT P6SM SKC TX28/2420Z TN17/2412Z 
     FM240900 00000KT 4SM HZ OVC015 
     TEMPO 2411/2415 1SM BR BKN005 
     FM241600 20010KT P6SM SKC
       
TAF MMML 231631Z 2318/2418 16010KT P6SM SKC 
     FM240300 00000KT P6SM BKN250
       
TAF MMMA 231716Z 2318/2418 12015KT P6SM BKN020 
     TEMPO 2322/2402 P6SM VC RA BKN020CB 
     FM240300 13015KT 4SM HZ BKN010 
     TEMPO 2410/2414 2SM HZ 
     FM241400 16020G30KT 6SM HZ SCT025
       
TAF AMD MMPB 232157Z 2322/2418 04012G29KT 5SM TSRA BKN020CB BKN080 OVC220 
     TEMPO 2322/2402 2SM TSRA BKN010 OVC020CB 
     FM240200 35006KT 6SM HZ BKN025 BKN090 BKN200 
     FM241500 20005KT 6SM HZ SCT090
       
TAF MMCP 231650Z 2318/2418 12010G20KT P6SM SCT030 BKN100 
     BECMG 2321/2322 06010G20KT 
     FM240200 11015KT 6SM HZ SCT080 
     FM241500 12015KT P6SM SCT030 BKN080
       
TAF COR MMQT 231845Z 2318/2418 34008KT 5SM HZ SKC 
     BECMG 2319/2320 BKN020 
     FM232100 04008G18KT 6SM VC RA BKN020CB 
     TEMPO 2322/2402 2SM TSRA OVC015CB 
     FM240400 10005KT 6SM HZ SCT120 
     TEMPO 2410/2414 4SM BR HZ 
     FM241600 27006KT 6SM HZ SKC
       
TAF MMZH 231603Z 2318/2418 25010KT 6SM HZ SCT020 
     BECMG 2401/2402 BKN015 
     FM240300 30004KT 6SM HZ BKN015 
     BECMG 2411/2412 SCT015 BKN020 
     FM241500 23008KT 6SM HZ SKC
       
TAF MMAS 231624Z 2318/2418 23010KT P6SM SCT100 
     TEMPO 2322/2402 26008G18KT SCT030CB 
     FM240400 23006KT P6SM SCT280 
     BECMG 2407/2408 18004KT SKC 
     FM241500 24008KT P6SM SKC
       
TAF MMTO 232316Z 2400/2506 18012KT 5SM TSRA BKN020CB OVC080 TX24/2420Z
TN08/2412Z 
     FM240200 22010KT P6SM BKN070 
     FM241000 00000KT 2SM BR BKN010 
     TEMPO 2412/2415 1/2SM FG VV003 
     FM241600 00000KT 4SM HZ SCT015 
     FM242000 23010KT P6SM BKN020CB 
     TEMPO 2421/2501 4SM TSRA 
     FM250200 00000KT P6SM BKN070
       
TAF MMMX 232316Z 2400/2506 27015KT 5SM TSRA BKN020CB OVC080 TX28/2421Z
TN14/2412Z 
     FM240300 00000KT P6SM SCT020 BKN080 
     FM241200 00000KT 4SM HZ BKN200 
     FM242100 06012KT P6SM BKN025 
     PROB40 2422/2502 23015KT 5SM TSRA BKN020CB
       
TAF MMPR 232302Z 2400/2506 20012KT P6SM SKC TX28/2420Z TN25/2412Z 
     FM240600 00000KT P6SM BKN020 
     FM241600 20010KT P6SM SKC
       
TAF MMMD 232252Z 2400/2506 06012KT P6SM BKN020 TX39/2420Z TN25/2412Z 
     TEMPO 2400/2402 5SM RA SCT015CB 
     FM240300 09010KT P6SM BKN100 
     FM240600 00000KT P6SM BKN250 
     FM241500 12012KT P6SM BKN020 
     PROB40 2420/2424 5SM TSRA BKN020CB 
     FM250100 09010KT P6SM SCT015 BKN200
       
TAF COR MMPN 231843Z 2318/2418 18008KT 4SM FU HZ SKC 
     BECMG 2319/2320 35008KT SCT030CB 
     TEMPO 2321/2401 4SM FU HZ -TSRA BKN030CB 
     FM240300 00000KT 5SM FU HZ 
     TEMPO 2411/2415 3SM FU HZ 
     FM241600 18006KT 4SM HZ SKC
       
TAF MMLT 231629Z 2318/2418 16010KT P6SM SKC 
     TEMPO 2320/2324 16014KT 
     FM240300 23005KT P6SM SKC 
     FM241600 13006KT P6SM SKC
       
TAF MMSD 231629Z 2318/2418 13015KT P6SM SKC 
     FM240300 30006KT P6SM SKC 
     FM241700 13010KT P6SM SKC
       
TAF MMMT 231650Z 2318/2418 03015KT 6SM HZ SCT030 SCT250 
     FM240300 36006KT 6SM HZ SCT080 
     BECMG 2407/2408 08004KT 3SM BR HZ 
     FM241500 09006KT 5SM HZ SCT300
       
TAF MMMV 231730Z 2318/2418 04012KT P6SM BKN030 
     TEMPO 2322/2402 3SM TSRA OVC020CB 
     FM240300 12010KT 5SM HZ OVC010 
     TEMPO 2410/2414 2SM DZ OVC005 
     FM241500 12010KT P6SM BKN025
       
TAF MMPG 231716Z 2318/2418 12012KT P6SM BKN030 BKN080 
     BECMG 2321/2322 06014KT 
     FM240200 10010KT 6SM HZ BKN030CB 
     TEMPO 2403/2407 2SM TSRA BKN010CB OVC070 
     FM240700 10008KT 4SM RA BKN010CB OVC100 
     FM241000 13004KT 2SM BR BKN010 BKN200 
     TEMPO 2411/2415 1/2SM FG VV002 
     FM241500 16010KT 4SM BR HZ BKN010 
     BECMG 2416/2417 BKN015
       
TAF MMIO 231730Z 2318/2418 36015KT P6SM SCT030 
     FM232100 24015KT P6SM BKN030 
     TEMPO 2323/2402 4SM TSRA BKN020CB 
     FM240600 04010KT P6SM SKC 
     TEMPO 2412/2416 2SM BR BKN010
       
TAF MMZO 231647Z 2318/2418 23012KT P6SM SCT025 
     FM240300 00000KT P6SM SKC 
     FM241200 00000KT 5SM HZ BKN020
       
TAF MMSP 232302Z 2400/2506 09015G25KT P6SM SCT030 TX28/2421Z TN16/2412Z 
     TEMPO 2400/2402 5SM TSRA 
     FM240300 09010KT P6SM SKC 
     FM241000 00000KT 3SM BR BKN010 
     FM241500 12010KT P6SM SCT020 
     PROB40 2422/2502 4SM TSRA BKN020CB
       
TAF MMPS 231603Z 2318/2418 23010KT P6SM SCT015 SCT120 SCT300 
     FM240300 29005KT P6SM SCT015 SCT300 
     BECMG 2409/2410 SKC 
     FM241600 23008KT P6SM SKC
       
TAF MMNL 231716Z 2318/2418 13010G20KT P6SM SCT025 BKN070 BKN220 
     FM240300 13015KT 4SM HZ SCT015CB BKN020 BKN200 
     TEMPO 2404/2408 4SM TSRA BKN015CB 
     FM240800 20008KT 4SM -RA SCT010 BKN015 BKN200 
     FM241500 16010KT 6SM HZ SCT015 BKN020 BKN250
       
TAF MMTP 232252Z 2400/2506 24010KT 5SM TSRA BKN020CB 
     FM240200 00000KT P6SM SCT020 BKN080 
     FM240600 00000KT 5SM RA BKN020CB OVC080 
     PROB40 2408/2412 2SM TSRA OVC010CB 
     FM241500 20010KT P6SM BKN025 
     PROB40 2422/2502 4SM TSRA BKN020CB
       
TAF MMEP 231624Z 2318/2418 34010KT P6SM SKC 
     FM240300 00000KT P6SM SKC 
     TEMPO 2411/2415 3SM BR 
     FM241600 30006KT P6SM SKC
       
TAF MMTC 231730Z 2318/2418 22012KT 5SM HZ SKC 
     FM232100 24015KT P6SM SCT030 
     TEMPO 2322/2402 3SM TSRA BKN020CB 
     FM240300 15010KT P6SM SCT080
       
TAF MMLM 231629Z 2318/2418 22010KT P6SM SKC 
     TEMPO 2319/2323 22015KT 
     FM240300 17006KT P6SM SKC 
     FM241600 18010KT P6SM SKC
       
TAF COR MMOX 231842Z 2318/2418 13008KT P6SM SCT070 SCT300 
     FM232000 06014KT P6SM SCT030 BKN100 
     TEMPO 2322/2402 SCT030CB 
     FM240300 08005KT 6SM HZ SCT100 
     BECMG 2405/2406 BKN060 
     FM241200 13004KT 4SM HZ SCT300 
     FM241600 13006KT 5SM HZ SCT100 SCT300